sensor_id;sensor_type;location;lat;lon;timestamp;P1;durP1;ratioP1;P2;durP2;ratioP2
28266;SDS011;15525;45.568;5.448;2023-02-01T00:00:14;31.17;;;14.82;;
28266;SDS011;15525;45.568;5.448;2023-02-01T00:02:39;30.23;;;15.25;;
28266;SDS011;15525;45.568;5.448;2023-02-01T00:05:08;29.17;;;15.50;;
28266;SDS011;15525;45.568;5.448;2023-02-01T00:07:35;32.72;;;16.48;;
28266;SDS011;15525;45.568;5.448;2023-02-01T00:10:01;37.08;;;17.08;;
28266;SDS011;15525;45.568;5.448;2023-02-01T00:12:28;31.23;;;16.30;;
28266;SDS011;15525;45.568;5.448;2023-02-01T00:14:53;30.80;;;15.43;;
28266;SDS011;15525;45.568;5.448;2023-02-01T00:17:19;28.23;;;14.80;;
28266;SDS011;15525;45.568;5.448;2023-02-01T00:19:44;28.85;;;15.45;;
28266;SDS011;15525;45.568;5.448;2023-02-01T00:22:09;27.88;;;15.75;;
28266;SDS011;15525;45.568;5.448;2023-02-01T00:24:35;29.65;;;14.30;;
28266;SDS011;15525;45.568;5.448;2023-02-01T00:27:00;29.80;;;15.65;;
28266;SDS011;15525;45.568;5.448;2023-02-01T00:29:25;28.13;;;14.60;;
28266;SDS011;15525;45.568;5.448;2023-02-01T00:31:51;31.27;;;15.48;;
28266;SDS011;15525;45.568;5.448;2023-02-01T00:34:17;28.02;;;15.50;;
28266;SDS011;15525;45.568;5.448;2023-02-01T00:36:44;28.00;;;14.63;;
28266;SDS011;15525;45.568;5.448;2023-02-01T00:39:10;26.92;;;14.60;;
28266;SDS011;15525;45.568;5.448;2023-02-01T00:41:35;30.48;;;15.23;;
28266;SDS011;15525;45.568;5.448;2023-02-01T00:44:01;28.27;;;16.25;;
28266;SDS011;15525;45.568;5.448;2023-02-01T00:46:27;28.40;;;14.57;;
28266;SDS011;15525;45.568;5.448;2023-02-01T00:48:53;28.80;;;15.73;;
28266;SDS011;15525;45.568;5.448;2023-02-01T00:51:21;29.35;;;14.63;;
28266;SDS011;15525;45.568;5.448;2023-02-01T00:53:48;29.65;;;15.32;;
28266;SDS011;15525;45.568;5.448;2023-02-01T00:56:15;24.08;;;13.82;;
28266;SDS011;15525;45.568;5.448;2023-02-01T00:58:41;30.13;;;15.60;;
28266;SDS011;15525;45.568;5.448;2023-02-01T01:01:16;26.60;;;14.63;;
28266;SDS011;15525;45.568;5.448;2023-02-01T01:03:45;32.05;;;16.05;;
28266;SDS011;15525;45.568;5.448;2023-02-01T01:06:17;28.73;;;15.23;;
28266;SDS011;15525;45.568;5.448;2023-02-01T01:08:45;31.63;;;16.48;;
28266;SDS011;15525;45.568;5.448;2023-02-01T01:11:12;32.38;;;17.23;;
28266;SDS011;15525;45.568;5.448;2023-02-01T01:13:41;30.77;;;16.10;;
28266;SDS011;15525;45.568;5.448;2023-02-01T01:16:07;29.52;;;16.30;;
28266;SDS011;15525;45.568;5.448;2023-02-01T01:18:35;32.15;;;16.30;;
28266;SDS011;15525;45.568;5.448;2023-02-01T01:21:01;28.25;;;16.10;;
28266;SDS011;15525;45.568;5.448;2023-02-01T01:23:28;30.33;;;15.85;;
28266;SDS011;15525;45.568;5.448;2023-02-01T01:25:54;29.75;;;14.45;;
28266;SDS011;15525;45.568;5.448;2023-02-01T01:28:19;29.45;;;15.20;;
28266;SDS011;15525;45.568;5.448;2023-02-01T01:30:45;26.83;;;14.98;;
28266;SDS011;15525;45.568;5.448;2023-02-01T01:33:10;27.63;;;14.57;;
28266;SDS011;15525;45.568;5.448;2023-02-01T01:35:35;32.33;;;15.63;;
28266;SDS011;15525;45.568;5.448;2023-02-01T01:38:01;28.63;;;15.05;;
28266;SDS011;15525;45.568;5.448;2023-02-01T01:40:28;32.33;;;15.82;;
28266;SDS011;15525;45.568;5.448;2023-02-01T01:42:55;32.03;;;16.08;;
28266;SDS011;15525;45.568;5.448;2023-02-01T01:45:31;28.92;;;15.32;;
28266;SDS011;15525;45.568;5.448;2023-02-01T01:48:01;29.35;;;15.40;;
28266;SDS011;15525;45.568;5.448;2023-02-01T01:50:33;30.70;;;16.15;;
28266;SDS011;15525;45.568;5.448;2023-02-01T01:53:05;28.15;;;15.43;;
28266;SDS011;15525;45.568;5.448;2023-02-01T01:55:35;33.75;;;15.50;;
28266;SDS011;15525;45.568;5.448;2023-02-01T01:58:05;29.17;;;14.70;;
28266;SDS011;15525;45.568;5.448;2023-02-01T02:00:35;29.85;;;15.73;;
28266;SDS011;15525;45.568;5.448;2023-02-01T02:05:39;27.92;;;15.70;;
28266;SDS011;15525;45.568;5.448;2023-02-01T02:08:06;28.27;;;14.27;;
28266;SDS011;15525;45.568;5.448;2023-02-01T02:10:31;34.95;;;15.45;;
28266;SDS011;15525;45.568;5.448;2023-02-01T02:13:16;32.72;;;15.63;;
28266;SDS011;15525;45.568;5.448;2023-02-01T02:15:48;30.83;;;14.93;;
28266;SDS011;15525;45.568;5.448;2023-02-01T02:21:42;32.05;;;14.98;;
28266;SDS011;15525;45.568;5.448;2023-02-01T02:32:53;33.72;;;16.77;;
28266;SDS011;15525;45.568;5.448;2023-02-01T02:38:12;27.90;;;15.25;;
28266;SDS011;15525;45.568;5.448;2023-02-01T02:43:37;33.15;;;15.63;;
28266;SDS011;15525;45.568;5.448;2023-02-01T02:46:42;33.22;;;15.57;;
28266;SDS011;15525;45.568;5.448;2023-02-01T02:52:34;31.55;;;15.93;;
28266;SDS011;15525;45.568;5.448;2023-02-01T02:55:23;27.45;;;15.13;;
28266;SDS011;15525;45.568;5.448;2023-02-01T02:57:49;27.58;;;14.88;;
28266;SDS011;15525;45.568;5.448;2023-02-01T03:00:34;27.98;;;16.20;;
28266;SDS011;15525;45.568;5.448;2023-02-01T03:03:20;29.98;;;16.10;;
28266;SDS011;15525;45.568;5.448;2023-02-01T03:06:04;26.25;;;13.82;;
28266;SDS011;15525;45.568;5.448;2023-02-01T03:08:39;27.65;;;14.25;;
28266;SDS011;15525;45.568;5.448;2023-02-01T03:11:10;28.67;;;15.75;;
28266;SDS011;15525;45.568;5.448;2023-02-01T03:13:54;26.90;;;14.70;;
28266;SDS011;15525;45.568;5.448;2023-02-01T03:16:24;26.40;;;14.45;;
28266;SDS011;15525;45.568;5.448;2023-02-01T03:19:00;30.23;;;15.85;;
28266;SDS011;15525;45.568;5.448;2023-02-01T03:21:35;27.33;;;14.50;;
28266;SDS011;15525;45.568;5.448;2023-02-01T03:24:04;30.55;;;15.27;;
28266;SDS011;15525;45.568;5.448;2023-02-01T03:26:34;27.10;;;15.00;;
28266;SDS011;15525;45.568;5.448;2023-02-01T03:29:14;29.35;;;15.05;;
28266;SDS011;15525;45.568;5.448;2023-02-01T03:31:43;27.98;;;14.70;;
28266;SDS011;15525;45.568;5.448;2023-02-01T03:34:10;26.48;;;14.90;;
28266;SDS011;15525;45.568;5.448;2023-02-01T03:36:39;25.92;;;14.95;;
28266;SDS011;15525;45.568;5.448;2023-02-01T03:39:17;34.90;;;16.30;;
28266;SDS011;15525;45.568;5.448;2023-02-01T03:41:49;29.17;;;15.15;;
28266;SDS011;15525;45.568;5.448;2023-02-01T03:45:01;28.23;;;15.75;;
28266;SDS011;15525;45.568;5.448;2023-02-01T03:47:19;28.27;;;15.48;;
28266;SDS011;15525;45.568;5.448;2023-02-01T03:49:58;27.55;;;14.88;;
28266;SDS011;15525;45.568;5.448;2023-02-01T03:52:41;27.00;;;15.13;;
28266;SDS011;15525;45.568;5.448;2023-02-01T03:55:10;28.48;;;15.60;;
28266;SDS011;15525;45.568;5.448;2023-02-01T03:57:59;27.08;;;15.27;;
28266;SDS011;15525;45.568;5.448;2023-02-01T04:00:29;24.77;;;14.77;;
28266;SDS011;15525;45.568;5.448;2023-02-01T04:02:54;28.15;;;14.73;;
28266;SDS011;15525;45.568;5.448;2023-02-01T04:05:20;29.38;;;15.25;;
28266;SDS011;15525;45.568;5.448;2023-02-01T04:07:46;27.67;;;16.02;;
28266;SDS011;15525;45.568;5.448;2023-02-01T04:10:12;25.88;;;14.02;;
28266;SDS011;15525;45.568;5.448;2023-02-01T04:12:37;27.38;;;14.73;;
28266;SDS011;15525;45.568;5.448;2023-02-01T04:15:03;28.42;;;15.23;;
28266;SDS011;15525;45.568;5.448;2023-02-01T04:17:29;28.27;;;15.32;;
28266;SDS011;15525;45.568;5.448;2023-02-01T04:19:55;32.45;;;15.95;;
28266;SDS011;15525;45.568;5.448;2023-02-01T04:22:20;26.65;;;14.88;;
28266;SDS011;15525;45.568;5.448;2023-02-01T04:24:46;25.70;;;15.35;;
28266;SDS011;15525;45.568;5.448;2023-02-01T04:27:11;29.70;;;15.15;;
28266;SDS011;15525;45.568;5.448;2023-02-01T04:29:37;30.77;;;15.30;;
28266;SDS011;15525;45.568;5.448;2023-02-01T04:32:03;27.52;;;15.75;;
28266;SDS011;15525;45.568;5.448;2023-02-01T04:34:28;30.00;;;15.40;;
28266;SDS011;15525;45.568;5.448;2023-02-01T04:36:54;30.38;;;14.52;;
28266;SDS011;15525;45.568;5.448;2023-02-01T04:39:19;28.95;;;15.52;;
28266;SDS011;15525;45.568;5.448;2023-02-01T04:41:44;25.65;;;14.18;;
28266;SDS011;15525;45.568;5.448;2023-02-01T04:44:12;28.83;;;14.38;;
28266;SDS011;15525;45.568;5.448;2023-02-01T04:46:43;27.60;;;14.80;;
28266;SDS011;15525;45.568;5.448;2023-02-01T04:49:12;30.92;;;15.90;;
28266;SDS011;15525;45.568;5.448;2023-02-01T04:51:38;28.75;;;15.43;;
28266;SDS011;15525;45.568;5.448;2023-02-01T04:54:05;27.92;;;14.75;;
28266;SDS011;15525;45.568;5.448;2023-02-01T04:56:30;29.63;;;14.88;;
28266;SDS011;15525;45.568;5.448;2023-02-01T04:58:56;26.90;;;14.55;;
28266;SDS011;15525;45.568;5.448;2023-02-01T05:01:22;28.08;;;14.65;;
28266;SDS011;15525;45.568;5.448;2023-02-01T05:03:49;29.50;;;14.73;;
28266;SDS011;15525;45.568;5.448;2023-02-01T05:06:15;27.48;;;14.15;;
28266;SDS011;15525;45.568;5.448;2023-02-01T05:08:40;29.23;;;15.30;;
28266;SDS011;15525;45.568;5.448;2023-02-01T05:11:06;27.60;;;14.75;;
28266;SDS011;15525;45.568;5.448;2023-02-01T05:13:31;30.02;;;15.10;;
28266;SDS011;15525;45.568;5.448;2023-02-01T05:16:15;27.55;;;14.70;;
28266;SDS011;15525;45.568;5.448;2023-02-01T05:18:41;31.10;;;15.02;;
28266;SDS011;15525;45.568;5.448;2023-02-01T05:21:06;26.67;;;14.93;;
28266;SDS011;15525;45.568;5.448;2023-02-01T05:23:32;26.73;;;14.93;;
28266;SDS011;15525;45.568;5.448;2023-02-01T05:26:17;28.05;;;14.75;;
28266;SDS011;15525;45.568;5.448;2023-02-01T05:28:43;27.42;;;14.75;;
28266;SDS011;15525;45.568;5.448;2023-02-01T05:31:11;26.98;;;15.40;;
28266;SDS011;15525;45.568;5.448;2023-02-01T05:33:37;27.08;;;15.40;;
28266;SDS011;15525;45.568;5.448;2023-02-01T05:36:02;26.80;;;15.82;;
28266;SDS011;15525;45.568;5.448;2023-02-01T05:38:28;27.60;;;15.35;;
28266;SDS011;15525;45.568;5.448;2023-02-01T05:40:54;27.85;;;15.45;;
28266;SDS011;15525;45.568;5.448;2023-02-01T05:43:20;33.83;;;15.88;;
28266;SDS011;15525;45.568;5.448;2023-02-01T05:45:46;38.35;;;18.83;;
28266;SDS011;15525;45.568;5.448;2023-02-01T05:48:11;34.17;;;17.92;;
28266;SDS011;15525;45.568;5.448;2023-02-01T05:50:37;36.83;;;17.73;;
28266;SDS011;15525;45.568;5.448;2023-02-01T05:53:02;36.35;;;19.15;;
28266;SDS011;15525;45.568;5.448;2023-02-01T05:55:28;35.10;;;18.73;;
28266;SDS011;15525;45.568;5.448;2023-02-01T05:57:53;40.38;;;19.00;;
28266;SDS011;15525;45.568;5.448;2023-02-01T06:00:19;38.40;;;19.20;;
28266;SDS011;15525;45.568;5.448;2023-02-01T06:02:44;34.55;;;18.63;;
28266;SDS011;15525;45.568;5.448;2023-02-01T06:05:10;38.08;;;18.38;;
28266;SDS011;15525;45.568;5.448;2023-02-01T06:07:35;38.25;;;19.85;;
28266;SDS011;15525;45.568;5.448;2023-02-01T06:10:01;35.90;;;18.35;;
28266;SDS011;15525;45.568;5.448;2023-02-01T06:12:26;36.35;;;19.45;;
28266;SDS011;15525;45.568;5.448;2023-02-01T06:14:53;37.55;;;18.80;;
28266;SDS011;15525;45.568;5.448;2023-02-01T06:17:18;35.13;;;18.10;;
28266;SDS011;15525;45.568;5.448;2023-02-01T06:19:44;50.00;;;24.50;;
28266;SDS011;15525;45.568;5.448;2023-02-01T06:22:10;44.38;;;21.98;;
28266;SDS011;15525;45.568;5.448;2023-02-01T06:24:35;42.92;;;21.08;;
28266;SDS011;15525;45.568;5.448;2023-02-01T06:27:01;43.97;;;20.58;;
28266;SDS011;15525;45.568;5.448;2023-02-01T06:29:26;39.53;;;19.98;;
28266;SDS011;15525;45.568;5.448;2023-02-01T06:31:51;35.85;;;18.75;;
28266;SDS011;15525;45.568;5.448;2023-02-01T06:34:17;37.85;;;18.48;;
28266;SDS011;15525;45.568;5.448;2023-02-01T06:36:43;46.95;;;23.35;;
28266;SDS011;15525;45.568;5.448;2023-02-01T06:39:08;38.60;;;18.05;;
28266;SDS011;15525;45.568;5.448;2023-02-01T06:41:33;33.80;;;17.92;;
28266;SDS011;15525;45.568;5.448;2023-02-01T06:43:59;32.03;;;18.90;;
28266;SDS011;15525;45.568;5.448;2023-02-01T06:46:25;35.95;;;18.20;;
28266;SDS011;15525;45.568;5.448;2023-02-01T06:48:51;36.22;;;19.58;;
28266;SDS011;15525;45.568;5.448;2023-02-01T06:51:26;36.03;;;18.92;;
28266;SDS011;15525;45.568;5.448;2023-02-01T06:53:52;35.63;;;18.23;;
28266;SDS011;15525;45.568;5.448;2023-02-01T06:56:18;38.05;;;19.67;;
28266;SDS011;15525;45.568;5.448;2023-02-01T06:58:44;39.28;;;19.90;;
28266;SDS011;15525;45.568;5.448;2023-02-01T07:01:09;40.83;;;20.50;;
28266;SDS011;15525;45.568;5.448;2023-02-01T07:03:35;35.60;;;18.55;;
28266;SDS011;15525;45.568;5.448;2023-02-01T07:06:02;33.08;;;18.15;;
28266;SDS011;15525;45.568;5.448;2023-02-01T07:08:29;32.80;;;18.35;;
28266;SDS011;15525;45.568;5.448;2023-02-01T07:10:56;39.65;;;21.05;;
28266;SDS011;15525;45.568;5.448;2023-02-01T07:13:22;38.90;;;19.65;;
28266;SDS011;15525;45.568;5.448;2023-02-01T07:15:47;33.70;;;18.52;;
28266;SDS011;15525;45.568;5.448;2023-02-01T07:18:13;38.80;;;20.20;;
28266;SDS011;15525;45.568;5.448;2023-02-01T07:20:40;35.85;;;19.63;;
28266;SDS011;15525;45.568;5.448;2023-02-01T07:23:05;32.65;;;18.20;;
28266;SDS011;15525;45.568;5.448;2023-02-01T07:25:31;31.65;;;17.80;;
28266;SDS011;15525;45.568;5.448;2023-02-01T07:27:57;37.03;;;20.20;;
28266;SDS011;15525;45.568;5.448;2023-02-01T07:30:23;35.55;;;19.90;;
28266;SDS011;15525;45.568;5.448;2023-02-01T07:32:48;39.70;;;20.48;;
28266;SDS011;15525;45.568;5.448;2023-02-01T07:35:13;35.40;;;18.77;;
28266;SDS011;15525;45.568;5.448;2023-02-01T07:37:39;39.42;;;21.35;;
28266;SDS011;15525;45.568;5.448;2023-02-01T07:40:05;50.20;;;23.92;;
28266;SDS011;15525;45.568;5.448;2023-02-01T07:42:31;43.83;;;24.13;;
28266;SDS011;15525;45.568;5.448;2023-02-01T07:44:56;45.95;;;25.15;;
28266;SDS011;15525;45.568;5.448;2023-02-01T07:47:22;43.97;;;24.33;;
28266;SDS011;15525;45.568;5.448;2023-02-01T07:49:47;49.05;;;24.67;;
28266;SDS011;15525;45.568;5.448;2023-02-01T07:52:13;44.17;;;23.92;;
28266;SDS011;15525;45.568;5.448;2023-02-01T07:54:40;45.85;;;24.42;;
28266;SDS011;15525;45.568;5.448;2023-02-01T07:57:06;46.67;;;24.08;;
28266;SDS011;15525;45.568;5.448;2023-02-01T07:59:33;39.67;;;21.98;;
28266;SDS011;15525;45.568;5.448;2023-02-01T08:01:59;40.50;;;22.88;;
28266;SDS011;15525;45.568;5.448;2023-02-01T08:04:24;45.67;;;24.27;;
28266;SDS011;15525;45.568;5.448;2023-02-01T08:06:50;38.35;;;20.52;;
28266;SDS011;15525;45.568;5.448;2023-02-01T08:09:15;35.88;;;19.35;;
28266;SDS011;15525;45.568;5.448;2023-02-01T08:11:41;38.05;;;18.95;;
28266;SDS011;15525;45.568;5.448;2023-02-01T08:14:06;43.80;;;20.88;;
28266;SDS011;15525;45.568;5.448;2023-02-01T08:16:32;44.40;;;21.35;;
28266;SDS011;15525;45.568;5.448;2023-02-01T08:19:00;41.30;;;19.40;;
28266;SDS011;15525;45.568;5.448;2023-02-01T08:21:26;37.28;;;18.02;;
28266;SDS011;15525;45.568;5.448;2023-02-01T08:24:01;41.75;;;18.48;;
28266;SDS011;15525;45.568;5.448;2023-02-01T08:26:28;37.78;;;18.27;;
28266;SDS011;15525;45.568;5.448;2023-02-01T08:28:54;41.45;;;18.73;;
28266;SDS011;15525;45.568;5.448;2023-02-01T08:31:23;33.38;;;16.98;;
28266;SDS011;15525;45.568;5.448;2023-02-01T08:33:51;32.08;;;16.20;;
28266;SDS011;15525;45.568;5.448;2023-02-01T08:36:21;41.38;;;19.00;;
28266;SDS011;15525;45.568;5.448;2023-02-01T08:38:48;35.15;;;18.92;;
28266;SDS011;15525;45.568;5.448;2023-02-01T08:41:14;42.45;;;20.95;;
28266;SDS011;15525;45.568;5.448;2023-02-01T08:43:42;37.22;;;20.20;;
28266;SDS011;15525;45.568;5.448;2023-02-01T08:46:09;42.85;;;21.67;;
28266;SDS011;15525;45.568;5.448;2023-02-01T08:48:35;69.30;;;40.92;;
28266;SDS011;15525;45.568;5.448;2023-02-01T08:51:01;40.10;;;20.60;;
28266;SDS011;15525;45.568;5.448;2023-02-01T08:53:28;31.42;;;16.58;;
28266;SDS011;15525;45.568;5.448;2023-02-01T08:55:54;30.92;;;14.40;;
28266;SDS011;15525;45.568;5.448;2023-02-01T08:58:19;23.67;;;12.75;;
28266;SDS011;15525;45.568;5.448;2023-02-01T09:00:46;29.83;;;14.02;;
28266;SDS011;15525;45.568;5.448;2023-02-01T09:03:13;26.10;;;13.02;;
28266;SDS011;15525;45.568;5.448;2023-02-01T09:05:38;26.33;;;13.13;;
28266;SDS011;15525;45.568;5.448;2023-02-01T09:08:04;28.45;;;14.93;;
28266;SDS011;15525;45.568;5.448;2023-02-01T09:10:30;28.45;;;14.73;;
28266;SDS011;15525;45.568;5.448;2023-02-01T09:12:56;31.08;;;15.60;;
28266;SDS011;15525;45.568;5.448;2023-02-01T09:15:21;27.15;;;14.30;;
28266;SDS011;15525;45.568;5.448;2023-02-01T09:17:47;28.13;;;14.13;;
28266;SDS011;15525;45.568;5.448;2023-02-01T09:20:13;29.67;;;14.77;;
28266;SDS011;15525;45.568;5.448;2023-02-01T09:22:39;31.73;;;15.30;;
28266;SDS011;15525;45.568;5.448;2023-02-01T09:25:05;31.88;;;15.82;;
28266;SDS011;15525;45.568;5.448;2023-02-01T09:27:31;32.25;;;16.60;;
28266;SDS011;15525;45.568;5.448;2023-02-01T09:29:56;34.63;;;17.35;;
28266;SDS011;15525;45.568;5.448;2023-02-01T09:32:22;35.33;;;17.77;;
28266;SDS011;15525;45.568;5.448;2023-02-01T09:34:51;31.58;;;17.15;;
28266;SDS011;15525;45.568;5.448;2023-02-01T09:37:17;34.80;;;18.08;;
28266;SDS011;15525;45.568;5.448;2023-02-01T09:39:43;34.97;;;16.90;;
28266;SDS011;15525;45.568;5.448;2023-02-01T09:42:21;35.25;;;17.27;;
28266;SDS011;15525;45.568;5.448;2023-02-01T09:47:55;30.55;;;15.65;;
28266;SDS011;15525;45.568;5.448;2023-02-01T09:50:34;28.20;;;15.77;;
28266;SDS011;15525;45.568;5.448;2023-02-01T09:55:50;33.40;;;16.70;;
28266;SDS011;15525;45.568;5.448;2023-02-01T09:58:24;29.90;;;15.20;;
28266;SDS011;15525;45.568;5.448;2023-02-01T10:01:10;26.00;;;12.55;;
28266;SDS011;15525;45.568;5.448;2023-02-01T10:03:48;14.82;;;7.72;;
28266;SDS011;15525;45.568;5.448;2023-02-01T10:06:21;17.58;;;7.90;;
28266;SDS011;15525;45.568;5.448;2023-02-01T10:14:40;16.42;;;6.35;;
28266;SDS011;15525;45.568;5.448;2023-02-01T10:25:26;17.92;;;9.35;;
28266;SDS011;15525;45.568;5.448;2023-02-01T10:27:59;19.40;;;10.45;;
28266;SDS011;15525;45.568;5.448;2023-02-01T10:30:27;20.67;;;12.27;;
28266;SDS011;15525;45.568;5.448;2023-02-01T10:35:39;18.65;;;10.38;;
28266;SDS011;15525;45.568;5.448;2023-02-01T10:38:09;24.25;;;14.00;;
28266;SDS011;15525;45.568;5.448;2023-02-01T10:40:52;19.75;;;11.15;;
28266;SDS011;15525;45.568;5.448;2023-02-01T10:43:21;21.55;;;11.15;;
28266;SDS011;15525;45.568;5.448;2023-02-01T10:45:46;21.48;;;12.80;;
28266;SDS011;15525;45.568;5.448;2023-02-01T10:48:12;23.35;;;13.27;;
28266;SDS011;15525;45.568;5.448;2023-02-01T10:50:44;24.02;;;13.85;;
28266;SDS011;15525;45.568;5.448;2023-02-01T10:58:17;18.00;;;9.77;;
28266;SDS011;15525;45.568;5.448;2023-02-01T11:00:52;15.80;;;8.90;;
28266;SDS011;15525;45.568;5.448;2023-02-01T11:03:22;13.20;;;7.60;;
28266;SDS011;15525;45.568;5.448;2023-02-01T11:05:54;15.85;;;9.25;;
28266;SDS011;15525;45.568;5.448;2023-02-01T11:08:20;16.77;;;9.30;;
28266;SDS011;15525;45.568;5.448;2023-02-01T11:10:46;14.00;;;7.47;;
28266;SDS011;15525;45.568;5.448;2023-02-01T11:13:13;13.38;;;7.82;;
28266;SDS011;15525;45.568;5.448;2023-02-01T11:15:44;21.33;;;12.35;;
28266;SDS011;15525;45.568;5.448;2023-02-01T11:18:18;18.92;;;8.77;;
28266;SDS011;15525;45.568;5.448;2023-02-01T11:20:49;13.52;;;7.78;;
28266;SDS011;15525;45.568;5.448;2023-02-01T11:23:17;14.57;;;7.35;;
28266;SDS011;15525;45.568;5.448;2023-02-01T11:25:50;13.13;;;7.18;;
28266;SDS011;15525;45.568;5.448;2023-02-01T11:28:22;12.88;;;6.88;;
28266;SDS011;15525;45.568;5.448;2023-02-01T11:30:51;14.43;;;7.65;;
28266;SDS011;15525;45.568;5.448;2023-02-01T11:33:20;14.48;;;7.35;;
28266;SDS011;15525;45.568;5.448;2023-02-01T11:35:50;12.13;;;7.47;;
28266;SDS011;15525;45.568;5.448;2023-02-01T11:38:30;12.38;;;7.20;;
28266;SDS011;15525;45.568;5.448;2023-02-01T11:41:13;12.43;;;7.65;;
28266;SDS011;15525;45.568;5.448;2023-02-01T11:43:57;16.50;;;7.93;;
28266;SDS011;15525;45.568;5.448;2023-02-01T11:46:28;14.02;;;8.45;;
28266;SDS011;15525;45.568;5.448;2023-02-01T11:48:55;14.55;;;7.75;;
28266;SDS011;15525;45.568;5.448;2023-02-01T11:59:57;11.27;;;6.43;;
28266;SDS011;15525;45.568;5.448;2023-02-01T12:15:45;13.68;;;9.05;;
28266;SDS011;15525;45.568;5.448;2023-02-01T12:18:35;9.85;;;5.82;;
28266;SDS011;15525;45.568;5.448;2023-02-01T12:32:20;11.05;;;6.05;;
28266;SDS011;15525;45.568;5.448;2023-02-01T12:37:51;9.18;;;5.20;;
28266;SDS011;15525;45.568;5.448;2023-02-01T12:43:06;8.13;;;4.80;;
28266;SDS011;15525;45.568;5.448;2023-02-01T12:45:42;9.32;;;4.70;;
28266;SDS011;15525;45.568;5.448;2023-02-01T12:51:09;8.27;;;4.50;;
28266;SDS011;15525;45.568;5.448;2023-02-01T12:53:50;9.70;;;4.80;;
28266;SDS011;15525;45.568;5.448;2023-02-01T12:59:04;12.60;;;4.75;;
28266;SDS011;15525;45.568;5.448;2023-02-01T13:01:50;13.13;;;5.07;;
28266;SDS011;15525;45.568;5.448;2023-02-01T13:04:28;7.93;;;4.50;;
28266;SDS011;15525;45.568;5.448;2023-02-01T13:09:42;9.57;;;4.38;;
28266;SDS011;15525;45.568;5.448;2023-02-01T13:12:13;8.05;;;4.20;;
28266;SDS011;15525;45.568;5.448;2023-02-01T13:17:24;7.15;;;4.20;;
28266;SDS011;15525;45.568;5.448;2023-02-01T13:22:45;8.07;;;4.70;;
28266;SDS011;15525;45.568;5.448;2023-02-01T13:25:19;7.50;;;4.32;;
28266;SDS011;15525;45.568;5.448;2023-02-01T13:28:03;11.02;;;4.72;;
28266;SDS011;15525;45.568;5.448;2023-02-01T13:30:38;8.15;;;4.30;;
28266;SDS011;15525;45.568;5.448;2023-02-01T13:43:58;8.13;;;4.03;;
28266;SDS011;15525;45.568;5.448;2023-02-01T13:46:28;11.80;;;4.45;;
28266;SDS011;15525;45.568;5.448;2023-02-01T13:48:55;8.55;;;3.90;;
28266;SDS011;15525;45.568;5.448;2023-02-01T13:54:07;7.07;;;4.88;;
28266;SDS011;15525;45.568;5.448;2023-02-01T13:57:00;7.70;;;4.50;;
28266;SDS011;15525;45.568;5.448;2023-02-01T14:10:46;8.25;;;5.00;;
28266;SDS011;15525;45.568;5.448;2023-02-01T14:26:18;9.18;;;5.10;;
28266;SDS011;15525;45.568;5.448;2023-02-01T14:28:47;8.55;;;4.95;;
28266;SDS011;15525;45.568;5.448;2023-02-01T14:34:08;7.68;;;4.90;;
28266;SDS011;15525;45.568;5.448;2023-02-01T14:36:42;8.75;;;5.57;;
28266;SDS011;15525;45.568;5.448;2023-02-01T14:39:20;8.88;;;5.20;;
28266;SDS011;15525;45.568;5.448;2023-02-01T14:41:51;8.40;;;4.95;;
28266;SDS011;15525;45.568;5.448;2023-02-01T14:44:24;8.82;;;5.75;;
28266;SDS011;15525;45.568;5.448;2023-02-01T14:47:02;10.63;;;5.35;;
28266;SDS011;15525;45.568;5.448;2023-02-01T14:49:31;8.52;;;5.60;;
28266;SDS011;15525;45.568;5.448;2023-02-01T14:52:00;9.65;;;5.20;;
28266;SDS011;15525;45.568;5.448;2023-02-01T14:54:31;9.25;;;5.57;;
28266;SDS011;15525;45.568;5.448;2023-02-01T14:56:57;8.68;;;5.15;;
28266;SDS011;15525;45.568;5.448;2023-02-01T14:59:23;10.13;;;5.50;;
28266;SDS011;15525;45.568;5.448;2023-02-01T15:01:58;9.32;;;5.25;;
28266;SDS011;15525;45.568;5.448;2023-02-01T15:04:26;8.38;;;4.82;;
28266;SDS011;15525;45.568;5.448;2023-02-01T15:07:04;9.93;;;5.85;;
28266;SDS011;15525;45.568;5.448;2023-02-01T15:09:34;7.78;;;5.28;;
28266;SDS011;15525;45.568;5.448;2023-02-01T15:12:09;8.30;;;5.18;;
28266;SDS011;15525;45.568;5.448;2023-02-01T15:14:48;8.35;;;5.07;;
28266;SDS011;15525;45.568;5.448;2023-02-01T15:17:51;9.80;;;5.20;;
28266;SDS011;15525;45.568;5.448;2023-02-01T15:20:19;8.48;;;4.68;;
28266;SDS011;15525;45.568;5.448;2023-02-01T15:22:53;9.40;;;5.55;;
28266;SDS011;15525;45.568;5.448;2023-02-01T15:25:22;8.88;;;4.38;;
28266;SDS011;15525;45.568;5.448;2023-02-01T15:27:50;6.88;;;4.30;;
28266;SDS011;15525;45.568;5.448;2023-02-01T15:30:34;6.63;;;3.80;;
28266;SDS011;15525;45.568;5.448;2023-02-01T15:33:08;12.23;;;4.72;;
28266;SDS011;15525;45.568;5.448;2023-02-01T15:43:43;10.70;;;4.43;;
28266;SDS011;15525;45.568;5.448;2023-02-01T15:46:15;6.85;;;4.10;;
28266;SDS011;15525;45.568;5.448;2023-02-01T15:48:49;7.45;;;4.25;;
28266;SDS011;15525;45.568;5.448;2023-02-01T15:51:21;8.52;;;4.70;;
28266;SDS011;15525;45.568;5.448;2023-02-01T15:53:55;8.35;;;5.60;;
28266;SDS011;15525;45.568;5.448;2023-02-01T15:56:27;11.95;;;6.80;;
28266;SDS011;15525;45.568;5.448;2023-02-01T15:58:59;10.27;;;6.50;;
28266;SDS011;15525;45.568;5.448;2023-02-01T16:01:27;9.45;;;5.60;;
28266;SDS011;15525;45.568;5.448;2023-02-01T16:04:10;12.10;;;5.35;;
28266;SDS011;15525;45.568;5.448;2023-02-01T16:06:45;8.82;;;5.22;;
28266;SDS011;15525;45.568;5.448;2023-02-01T16:09:16;11.15;;;5.60;;
28266;SDS011;15525;45.568;5.448;2023-02-01T16:14:21;11.18;;;5.35;;
28266;SDS011;15525;45.568;5.448;2023-02-01T16:16:47;9.55;;;5.70;;
28266;SDS011;15525;45.568;5.448;2023-02-01T16:19:13;13.98;;;5.63;;
28266;SDS011;15525;45.568;5.448;2023-02-01T16:21:38;13.15;;;6.90;;
28266;SDS011;15525;45.568;5.448;2023-02-01T16:24:04;9.43;;;5.68;;
28266;SDS011;15525;45.568;5.448;2023-02-01T16:26:30;11.15;;;5.80;;
28266;SDS011;15525;45.568;5.448;2023-02-01T16:28:56;10.15;;;6.15;;
28266;SDS011;15525;45.568;5.448;2023-02-01T16:31:26;12.57;;;6.35;;
28266;SDS011;15525;45.568;5.448;2023-02-01T16:33:54;12.32;;;7.22;;
28266;SDS011;15525;45.568;5.448;2023-02-01T16:36:19;11.00;;;7.03;;
28266;SDS011;15525;45.568;5.448;2023-02-01T16:38:46;15.13;;;7.40;;
28266;SDS011;15525;45.568;5.448;2023-02-01T16:41:14;12.82;;;7.13;;
28266;SDS011;15525;45.568;5.448;2023-02-01T16:43:41;14.07;;;7.78;;
28266;SDS011;15525;45.568;5.448;2023-02-01T16:46:11;13.32;;;7.47;;
28266;SDS011;15525;45.568;5.448;2023-02-01T16:48:40;12.82;;;7.10;;
28266;SDS011;15525;45.568;5.448;2023-02-01T16:51:10;14.55;;;7.45;;
28266;SDS011;15525;45.568;5.448;2023-02-01T16:53:38;14.73;;;7.82;;
28266;SDS011;15525;45.568;5.448;2023-02-01T16:56:09;15.45;;;8.73;;
28266;SDS011;15525;45.568;5.448;2023-02-01T16:58:38;14.82;;;9.05;;
28266;SDS011;15525;45.568;5.448;2023-02-01T17:01:06;15.68;;;8.77;;
28266;SDS011;15525;45.568;5.448;2023-02-01T17:03:31;17.15;;;9.18;;
28266;SDS011;15525;45.568;5.448;2023-02-01T17:05:57;16.75;;;8.68;;
28266;SDS011;15525;45.568;5.448;2023-02-01T17:08:33;17.90;;;8.90;;
28266;SDS011;15525;45.568;5.448;2023-02-01T17:11:00;15.70;;;9.38;;
28266;SDS011;15525;45.568;5.448;2023-02-01T17:13:26;19.85;;;9.93;;
28266;SDS011;15525;45.568;5.448;2023-02-01T17:15:53;18.90;;;9.80;;